Time;durP1;ratioP1;P1;durP2;ratioP2;P2;SDS_P1;SDS_P2;PMS_P1;PMS_P2;Temp;Humidity;BMP_temperature;BMP_pressure;BME280_temperature;BME280_humidity;BME280_pressure;Samples;Min_cycle;Max_cycle;Signal;HPM_P1;HPM_P2
2022/09/27 08:46:06;;;;;;;3.20;1.17;;;17.90;99.90;;;;;;5091413;27;20431;-75
2022/09/27 08:48:33;;;;;;;3.38;1.08;;;16.30;99.90;;;;;;5089657;28;20095;-75
2022/09/27 08:51:01;;;;;;;3.70;1.27;;;15.10;99.90;;;;;;5090029;28;20043;-75
2022/09/27 08:53:35;;;;;;;7.35;1.33;;;14.30;99.90;;;;;;5090796;28;20025;-75
2022/09/27 08:56:02;;;;;;;3.97;1.02;;;13.60;99.90;;;;;;5089989;28;20024;-75
2022/09/27 08:58:39;;;;;;;2.85;1.20;;;13.00;99.90;;;;;;5089643;28;20499;-75
2022/09/27 09:01:11;;;;;;;2.95;1.30;;;12.60;99.90;;;;;;5090587;28;20024;-75
2022/09/27 09:03:42;;;;;;;5.88;1.45;;;12.20;99.90;;;;;;5089954;28;20054;-75
2022/09/27 09:06:28;;;;;;;4.20;1.75;;;11.90;99.90;;;;;;5089268;28;20052;-75
2022/09/27 09:09:31;;;;;;;3.45;1.58;;;11.70;99.90;;;;;;5089378;28;20465;-75
2022/09/27 09:15:14;;;;;;;17.48;2.13;;;11.70;99.90;;;;;;5090734;28;20085;-75
2022/09/27 09:17:42;;;;;;;4.97;1.98;;;11.80;99.90;;;;;;5090265;28;20016;-75
2022/09/27 09:20:46;;;;;;;2.85;1.48;;;11.80;99.90;;;;;;5088953;28;20064;-75
2022/09/27 09:24:08;;;;;;;6.75;1.67;;;11.80;99.90;;;;;;5088905;28;20028;-75
2022/09/27 09:26:41;;;;;;;2.08;1.55;;;11.90;99.90;;;;;;4991828;28;20030;-75
2022/09/27 09:29:26;;;;;;;5.13;1.80;;;11.90;99.90;;;;;;5008443;28;20034;-75
2022/09/27 09:32:37;;;;;;;9.68;1.65;;;11.90;99.90;;;;;;5008414;28;20030;-75
2022/09/27 09:35:09;;;;;;;2.67;1.33;;;12.00;99.90;;;;;;4992337;28;20026;-75
2022/09/27 09:37:48;;;;;;;2.90;1.45;;;12.00;99.90;;;;;;5008242;28;20045;-75
2022/09/27 09:40:39;;;;;;;4.38;1.38;;;12.10;99.90;;;;;;4991690;28;20203;-75
2022/09/27 09:43:20;;;;;;;8.30;1.87;;;12.20;99.90;;;;;;5008178;28;20030;-75
2022/09/27 09:45:49;;;;;;;1.80;1.17;;;12.10;99.90;;;;;;4992126;28;20030;-75
2022/09/27 09:48:38;;;;;;;5.07;1.20;;;12.10;99.90;;;;;;4991506;28;20073;-75
2022/09/27 09:51:07;;;;;;;0.93;0.65;;;12.10;99.90;;;;;;5008001;28;20038;-75
2022/09/27 09:53:45;;;;;;;3.92;1.00;;;12.10;99.90;;;;;;4991519;28;20032;-75
2022/09/27 09:56:25;;;;;;;3.83;1.10;;;12.20;99.90;;;;;;4996323;28;20036;-75
2022/09/27 09:58:57;;;;;;;3.90;1.08;;;12.30;99.90;;;;;;5076245;28;20450;-75
2022/09/27 10:01:29;;;;;;;;;;;12.20;99.90;;;;;;5076631;28;20017;-75
2022/09/27 10:03:55;;;;;;;3.53;1.17;;;12.20;99.90;;;;;;5075269;28;19908;-75
2022/09/27 10:06:22;;;;;;;3.03;1.42;;;12.10;99.90;;;;;;5074665;28;20020;-75
2022/09/27 10:08:53;;;;;;;4.13;1.10;;;12.10;99.90;;;;;;5075984;28;20021;-75
2022/09/27 10:11:23;;;;;;;7.75;1.30;;;12.20;99.90;;;;;;5076123;28;20032;-75
2022/09/27 10:13:48;;;;;;;1.25;0.70;;;12.30;99.90;;;;;;5075704;28;20085;-75
2022/09/27 10:16:19;;;;;;;3.10;0.90;;;12.30;99.90;;;;;;5075771;28;20108;-75
2022/09/27 10:18:47;;;;;;;2.10;1.00;;;12.30;99.90;;;;;;5074730;28;20024;-75
2022/09/27 10:21:21;;;;;;;3.28;0.65;;;12.30;99.90;;;;;;5074433;28;20044;-76
2022/09/27 10:24:18;;;;;;;1.60;0.90;;;12.30;99.90;;;;;;5074369;28;20029;-75
2022/09/27 10:26:46;;;;;;;4.97;0.88;;;12.40;99.90;;;;;;4994484;28;20038;-75
2022/09/27 10:29:31;;;;;;;5.70;0.77;;;12.40;99.90;;;;;;4978005;28;20065;-75
2022/09/27 10:31:59;;;;;;;2.00;0.70;;;12.50;99.90;;;;;;4994382;28;20035;-75
2022/09/27 10:34:34;;;;;;;1.15;0.60;;;12.50;99.90;;;;;;4977892;28;20037;-75
2022/09/27 10:37:05;;;;;;;6.72;2.75;;;12.60;99.90;;;;;;4977850;28;20041;-75
2022/09/27 10:39:31;;;;;;;3.65;0.77;;;12.60;99.90;;;;;;4977795;28;20038;-75
2022/09/27 10:41:56;;;;;;;2.60;0.80;;;12.60;99.90;;;;;;4993783;28;20035;-75
2022/09/27 10:44:31;;;;;;;0.90;0.60;;;12.70;99.90;;;;;;4993791;28;20064;-75
2022/09/27 10:47:11;;;;;;;2.53;1.05;;;12.70;99.90;;;;;;4977498;28;20033;-75
2022/09/27 10:49:39;;;;;;;1.92;0.50;;;12.80;99.90;;;;;;4977582;28;20460;-76
2022/09/27 10:52:17;;;;;;;0.30;0.30;;;12.70;99.90;;;;;;4994049;28;20026;-75
2022/09/27 10:54:53;;;;;;;2.95;0.80;;;12.70;99.90;;;;;;4993840;28;20502;-75
2022/09/27 10:57:21;;;;;;;4.45;0.65;;;12.70;99.90;;;;;;4977620;28;20172;-75
2022/09/27 10:59:55;;;;;;;1.70;0.90;;;12.70;99.90;;;;;;4993961;28;20034;-75
2022/09/27 11:02:27;;;;;;;2.40;0.50;;;12.70;99.90;;;;;;5009971;28;20036;-75
2022/09/27 11:05:28;;;;;;;1.42;0.50;;;12.70;99.90;;;;;;5073529;28;20029;-75
2022/09/27 11:07:56;;;;;;;1.48;0.30;;;12.70;99.90;;;;;;5072591;28;20081;-76
2022/09/27 11:10:30;;;;;;;1.75;0.40;;;12.80;99.90;;;;;;5075260;28;20095;-75
2022/09/27 11:13:22;;;;;;;3.78;0.50;;;12.80;99.90;;;;;;5074594;28;20107;-75
2022/09/27 11:16:22;;;;;;;2.00;0.47;;;12.80;99.90;;;;;;5069179;28;20043;-75
2022/09/27 11:19:23;;;;;;;3.33;0.65;;;12.80;99.90;;;;;;5073298;28;20028;-75
2022/09/27 11:22:01;;;;;;;2.33;0.73;;;12.80;99.90;;;;;;4976721;28;20117;-75
2022/09/27 11:24:38;;;;;;;5.97;1.60;;;12.80;99.90;;;;;;5060532;28;20491;-75
2022/09/27 11:27:09;;;;;;;2.05;0.60;;;12.80;99.90;;;;;;5073064;28;20028;-75
2022/09/27 11:29:57;;;;;;;4.85;1.15;;;12.70;99.90;;;;;;5073265;28;20029;-75
2022/09/27 11:32:36;;;;;;;1.80;0.63;;;12.80;99.90;;;;;;5074110;28;20035;-75
2022/09/27 11:35:58;;;;;;;1.08;0.43;;;12.80;99.90;;;;;;5071793;28;20782;-77
2022/09/27 11:38:27;;;;;;;1.30;0.30;;;12.90;99.90;;;;;;5070871;28;20032;-77
2022/09/27 11:41:17;;;;;;;1.67;0.25;;;12.90;99.90;;;;;;5070839;28;20450;-75
2022/09/27 11:43:49;;;;;;;1.23;0.52;;;12.90;99.90;;;;;;5069410;28;20105;-75
2022/09/27 11:46:20;;;;;;;1.10;0.77;;;13.10;99.90;;;;;;5071121;28;20534;-75
2022/09/27 11:49:23;;;;;;;1.85;1.15;;;13.20;99.90;;;;;;5069412;28;20016;-75
2022/09/27 11:52:08;;;;;;;4.60;1.40;;;13.30;99.90;;;;;;5070285;28;20028;-75
2022/09/27 11:54:36;;;;;;;0.47;0.40;;;13.20;99.90;;;;;;5070446;28;20025;-75
2022/09/27 11:57:32;;;;;;;2.67;0.47;;;13.10;99.90;;;;;;5070487;28;20025;-75
2022/09/27 12:00:18;;;;;;;3.13;0.55;;;12.90;99.90;;;;;;5070761;28;20024;-75
2022/09/27 12:02:46;;;;;;;1.75;0.70;;;12.60;99.90;;;;;;5070351;28;20021;-75
2022/09/27 12:05:46;;;;;;;3.47;0.70;;;12.50;99.90;;;;;;5069013;28;20031;-75
2022/09/27 12:08:12;;;;;;;3.22;0.70;;;12.50;99.90;;;;;;5070062;28;20016;-75
2022/09/27 12:10:42;;;;;;;1.40;0.80;;;12.50;99.90;;;;;;5070091;28;20021;-75
2022/09/27 12:13:13;;;;;;;3.28;1.10;;;12.50;99.90;;;;;;5069428;28;20024;-75
2022/09/27 12:15:43;;;;;;;3.95;1.73;;;12.50;99.90;;;;;;5068755;28;20035;-75
2022/09/27 12:18:18;;;;;;;1.88;1.17;;;12.60;99.90;;;;;;5069582;28;20025;-75
2022/09/27 12:20:43;;;;;;;1.17;0.68;;;12.60;99.90;;;;;;5068705;28;20506;-74
2022/09/27 12:23:22;;;;;;;3.90;0.90;;;12.70;99.90;;;;;;5069761;28;20017;-75
2022/09/27 12:25:53;;;;;;;2.10;0.52;;;12.70;99.90;;;;;;5068577;28;20028;-76
2022/09/27 12:28:24;;;;;;;1.23;0.52;;;12.80;99.90;;;;;;5070396;28;20021;-75
2022/09/27 12:31:00;;;;;;;0.55;0.52;;;12.90;99.90;;;;;;5068493;28;20043;-75
2022/09/27 12:33:36;;;;;;;1.42;0.60;;;13.00;99.90;;;;;;5068253;28;20025;-75
2022/09/27 12:36:08;;;;;;;1.92;0.90;;;13.00;99.90;;;;;;5068295;28;20027;-75
2022/09/27 12:38:45;;;;;;;;;;;13.20;99.90;;;;;;5069513;28;20028;-75
2022/09/27 12:41:16;;;;;;;0.52;0.40;;;13.30;99.90;;;;;;5069552;28;19904;-75
2022/09/27 12:43:44;;;;;;;2.53;0.93;;;13.40;99.90;;;;;;5069679;28;20032;-75
2022/09/27 12:46:42;;;;;;;1.92;0.77;;;13.50;99.90;;;;;;5060155;28;20170;-75
2022/09/27 12:49:18;;;;;;;1.30;0.50;;;13.50;99.90;;;;;;5054952;28;20051;-75
2022/09/27 12:51:50;;;;;;;1.55;0.88;;;13.50;99.90;;;;;;5054773;28;20025;-75
2022/09/27 12:54:31;;;;;;;3.03;0.80;;;13.50;99.90;;;;;;5054933;28;20028;-75
2022/09/27 12:57:33;;;;;;;1.00;0.80;;;13.50;99.90;;;;;;5056282;28;20024;-75
2022/09/27 13:00:17;;;;;;;2.40;1.13;;;13.50;99.90;;;;;;5055545;28;20027;-73
2022/09/27 13:02:49;;;;;;;4.78;1.48;;;13.40;99.90;;;;;;5054547;28;20017;-73
2022/09/27 13:05:42;;;;;;;0.93;0.73;;;13.30;99.90;;;;;;5055516;28;20029;-73
2022/09/27 13:08:30;;;;;;;1.17;0.85;;;13.30;99.90;;;;;;5053787;28;20025;-73
2022/09/27 13:11:23;;;;;;;1.63;0.60;;;13.40;99.90;;;;;;5055867;28;20025;-75
2022/09/27 13:13:55;;;;;;;1.50;0.73;;;13.30;99.90;;;;;;5054419;28;20032;-74
2022/09/27 13:16:21;;;;;;;1.65;0.77;;;13.40;99.90;;;;;;5054348;28;20024;-75
2022/09/27 13:18:47;;;;;;;1.52;0.85;;;13.20;99.90;;;;;;5054286;28;20507;-75
2022/09/27 13:21:44;;;;;;;0.88;0.70;;;13.20;99.90;;;;;;5055364;28;20043;-74
2022/09/27 13:24:30;;;;;;;7.80;3.08;;;13.10;99.90;;;;;;5054649;28;20021;-74
2022/09/27 13:26:59;;;;;;;0.22;0.22;;;12.90;99.90;;;;;;5055371;28;20032;-75
2022/09/27 13:29:28;;;;;;;1.98;0.90;;;12.80;99.90;;;;;;5055429;28;20032;-74
2022/09/27 13:31:53;;;;;;;3.60;1.00;;;12.60;99.90;;;;;;5055772;28;20033;-73
2022/09/27 13:34:42;;;;;;;1.83;0.70;;;12.60;99.90;;;;;;5055327;28;20039;-73
2022/09/27 13:37:34;;;;;;;2.35;1.10;;;12.60;99.90;;;;;;5055275;28;20021;-72
2022/09/27 13:40:14;;;;;;;5.55;1.73;;;12.60;99.90;;;;;;5055468;28;20025;-73
2022/09/27 13:42:49;;;;;;;2.65;1.42;;;12.40;99.90;;;;;;5055363;28;20025;-73
2022/09/27 13:45:25;;;;;;;2.22;0.70;;;12.30;99.90;;;;;;5054470;28;20123;-73
2022/09/27 13:47:55;;;;;;;0.40;0.40;;;12.30;99.90;;;;;;5055095;28;20028;-72
2022/09/27 13:50:43;;;;;;;2.03;0.80;;;12.30;99.90;;;;;;5054947;28;20044;-73
2022/09/27 13:53:27;;;;;;;2.15;0.60;;;12.40;99.90;;;;;;5055087;28;20028;-73
2022/09/27 13:55:52;;;;;;;1.85;0.40;;;12.50;99.90;;;;;;5054410;28;20071;-73
2022/09/27 13:58:18;;;;;;;1.42;0.40;;;12.60;99.90;;;;;;5053882;28;20053;-73
2022/09/27 14:00:57;;;;;;;2.50;0.70;;;12.70;99.90;;;;;;5053561;28;20025;-73
2022/09/27 14:03:25;;;;;;;2.63;0.90;;;12.80;99.90;;;;;;5053605;28;20092;-73
2022/09/27 14:05:55;;;;;;;0.65;0.50;;;12.80;99.90;;;;;;5053410;28;20021;-73
2022/09/27 14:08:38;;;;;;;2.60;0.57;;;12.90;99.90;;;;;;5054215;28;20168;-73
2022/09/27 14:11:11;;;;;;;1.48;0.55;;;12.90;99.90;;;;;;5053387;28;20063;-73
2022/09/27 14:13:38;;;;;;;0.30;0.30;;;12.80;99.90;;;;;;5054173;28;20021;-73
2022/09/27 14:16:05;;;;;;;0.50;0.50;;;12.80;99.90;;;;;;5053267;28;20032;-73
2022/09/27 14:18:34;;;;;;;0.63;0.55;;;12.70;99.90;;;;;;5053195;28;20025;-73
2022/09/27 14:21:19;;;;;;;1.05;0.45;;;12.60;99.90;;;;;;5053052;28;20048;-73
2022/09/27 14:23:45;;;;;;;1.30;0.80;;;12.50;99.90;;;;;;5053045;28;20056;-73
2022/09/27 14:26:22;;;;;;;2.38;0.95;;;12.50;99.90;;;;;;5053847;28;20114;-73
2022/09/27 14:28:48;;;;;;;2.00;0.68;;;12.50;99.90;;;;;;5053055;28;20029;-73
2022/09/27 14:37:59;;;;;;;2.38;0.70;;;12.60;99.90;;;;;;5054419;28;20083;-73
2022/09/27 14:40:26;;;;;;;2.42;0.98;;;13.00;99.90;;;;;;5054009;28;20033;-73
2022/09/27 14:42:54;;;;;;;0.98;0.75;;;13.30;99.90;;;;;;5052690;28;20029;-73
2022/09/27 14:45:21;;;;;;;1.23;0.70;;;13.60;99.90;;;;;;5054034;28;20025;-73
2022/09/27 14:47:49;;;;;;;1.45;0.70;;;13.90;99.90;;;;;;5052809;28;20028;-73
2022/09/27 14:50:24;;;;;;;1.08;0.45;;;14.20;99.90;;;;;;5053897;28;20028;-73
2022/09/27 14:52:54;;;;;;;1.55;0.70;;;14.50;99.90;;;;;;5053765;28;20020;-73
2022/09/27 14:55:22;;;;;;;2.20;0.75;;;14.80;99.90;;;;;;5052515;28;20049;-73
2022/09/27 14:57:54;;;;;;;1.00;0.60;;;15.00;99.90;;;;;;5052489;28;20017;-74
2022/09/27 15:00:23;;;;;;;2.03;0.70;;;15.00;99.90;;;;;;5052512;28;20032;-73
2022/09/27 15:02:54;;;;;;;1.15;0.70;;;15.00;99.90;;;;;;5053685;28;20112;-74
2022/09/27 15:05:23;;;;;;;2.72;0.90;;;14.60;99.90;;;;;;5052477;28;20035;-73
2022/09/27 15:07:49;;;;;;;1.02;0.77;;;14.20;99.90;;;;;;5053659;28;20056;-73
2022/09/27 15:10:17;;;;;;;2.00;1.27;;;14.00;99.90;;;;;;5053314;28;20032;-73
2022/09/27 15:12:49;;;;;;;0.85;0.70;;;13.80;99.90;;;;;;5052490;28;20020;-74
2022/09/27 15:15:20;;;;;;;1.58;0.85;;;13.80;99.90;;;;;;5052481;28;20029;-73
2022/09/27 15:17:46;;;;;;;2.57;1.13;;;13.90;99.90;;;;;;5052290;28;20032;-72
2022/09/27 15:20:34;;;;;;;1.20;0.77;;;13.80;99.90;;;;;;5052135;28;20370;-72
2022/09/27 15:23:01;;;;;;;4.00;1.45;;;13.80;99.90;;;;;;5052463;28;20083;-73
2022/09/27 15:25:33;;;;;;;2.22;1.30;;;13.70;99.90;;;;;;5053436;28;20029;-73
2022/09/27 15:28:01;;;;;;;;;;;13.60;99.90;;;;;;5052581;28;20100;-73
2022/09/27 15:30:38;;;;;;;2.72;1.27;;;13.50;99.90;;;;;;5053554;28;19905;-73
2022/09/27 15:33:06;;;;;;;2.83;1.02;;;13.30;99.90;;;;;;5051865;28;20495;-73
2022/09/27 15:35:34;;;;;;;3.35;1.10;;;13.20;99.90;;;;;;5053402;28;20029;-73
2022/09/27 15:38:18;;;;;;;2.33;1.00;;;13.20;99.90;;;;;;5051868;28;20040;-73
2022/09/27 15:40:44;;;;;;;2.17;1.70;;;13.20;99.90;;;;;;5051937;28;20025;-73
2022/09/27 15:43:20;;;;;;;2.35;1.15;;;13.20;99.90;;;;;;5052144;28;20487;-73
2022/09/27 15:45:50;;;;;;;1.85;1.15;;;13.10;99.90;;;;;;5053458;28;20021;-73
2022/09/27 15:48:20;;;;;;;4.63;1.00;;;13.10;99.90;;;;;;5053150;28;20025;-73
2022/09/27 15:50:47;;;;;;;1.67;0.80;;;13.10;99.90;;;;;;5051935;28;20024;-73
2022/09/27 15:53:35;;;;;;;1.63;0.88;;;13.10;99.90;;;;;;5052830;28;20031;-73
2022/09/27 15:56:02;;;;;;;3.72;1.30;;;13.10;99.90;;;;;;5051860;28;20025;-73
2022/09/27 15:58:30;;;;;;;2.78;1.02;;;13.10;99.90;;;;;;5053006;28;20024;-73
2022/09/27 16:00:58;;;;;;;2.05;0.80;;;13.10;99.90;;;;;;5051757;28;20116;-73
2022/09/27 16:03:25;;;;;;;2.50;1.25;;;13.10;99.90;;;;;;5051843;28;20021;-72
2022/09/27 16:05:54;;;;;;;1.42;1.05;;;13.00;99.90;;;;;;5053118;28;20086;-73
2022/09/27 16:08:20;;;;;;;1.17;0.80;;;13.00;99.90;;;;;;5054351;28;20075;-72
2022/09/27 16:10:49;;;;;;;2.67;1.10;;;13.00;99.90;;;;;;5054274;28;20062;-72
2022/09/27 16:13:15;;;;;;;3.17;1.00;;;13.00;99.90;;;;;;5051960;28;20476;-73
2022/09/27 16:15:41;;;;;;;2.90;1.23;;;12.90;99.90;;;;;;5051616;28;20024;-73
2022/09/27 16:18:06;;;;;;;4.10;1.50;;;12.90;99.90;;;;;;5051673;28;20047;-73
2022/09/27 16:20:32;;;;;;;2.30;1.55;;;12.90;99.90;;;;;;5053141;28;20017;-73
2022/09/27 16:22:59;;;;;;;3.05;1.50;;;12.90;99.90;;;;;;5056512;28;20096;-73
2022/09/27 16:25:24;;;;;;;3.92;1.80;;;12.90;99.90;;;;;;5055656;28;20025;-73
2022/09/27 16:27:51;;;;;;;4.88;1.80;;;12.90;99.90;;;;;;5055385;28;20121;-73
2022/09/27 16:33:38;;;;;;;7.10;1.77;;;13.00;99.90;;;;;;5056776;28;20043;-73
2022/09/27 16:36:13;;;;;;;4.93;1.58;;;13.00;99.90;;;;;;5056256;28;20024;-73
2022/09/27 16:38:39;;;;;;;2.10;1.23;;;12.90;99.90;;;;;;5055577;28;20453;-72
2022/09/27 16:41:05;;;;;;;1.58;1.08;;;12.80;99.90;;;;;;5056277;28;20017;-73
2022/09/27 16:43:31;;;;;;;2.00;1.13;;;12.80;99.90;;;;;;5055696;28;20169;-73
2022/09/27 16:46:04;;;;;;;4.97;1.35;;;12.80;99.90;;;;;;5054847;28;20167;-73
2022/09/27 16:48:30;;;;;;;1.05;0.95;;;12.70;99.90;;;;;;5056149;28;20033;-73
2022/09/27 16:53:45;;;;;;;1.98;0.95;;;12.50;99.90;;;;;;5056521;28;20068;-73
2022/09/27 16:56:11;;;;;;;6.25;1.10;;;12.40;99.90;;;;;;5055524;28;20049;-73
2022/09/27 16:58:36;;;;;;;2.40;1.27;;;12.40;99.90;;;;;;5054711;28;20154;-73
2022/09/27 17:01:02;;;;;;;2.25;0.68;;;12.40;99.90;;;;;;5056165;28;20468;-73
2022/09/27 17:03:27;;;;;;;1.52;0.80;;;12.30;99.90;;;;;;5055528;28;20028;-73
2022/09/27 17:05:53;;;;;;;2.25;1.10;;;12.30;99.90;;;;;;5055904;28;20028;-73
2022/09/27 17:08:19;;;;;;;2.83;1.00;;;12.30;99.90;;;;;;5054896;28;20028;-74
2022/09/27 17:10:45;;;;;;;1.15;0.70;;;12.20;99.90;;;;;;5055741;28;20052;-73
2022/09/27 17:13:10;;;;;;;1.52;1.05;;;12.30;99.90;;;;;;5055602;28;20031;-74
2022/09/27 17:15:36;;;;;;;1.40;1.13;;;12.20;99.90;;;;;;5054227;28;20073;-74
2022/09/27 17:18:02;;;;;;;4.57;1.63;;;12.30;99.90;;;;;;5054322;28;20075;-74
2022/09/27 17:20:28;;;;;;;3.45;2.08;;;12.20;99.90;;;;;;5054208;28;20025;-74
2022/09/27 17:22:53;;;;;;;4.03;2.47;;;12.20;99.90;;;;;;5054632;28;20025;-74
2022/09/27 17:25:19;;;;;;;3.47;2.10;;;12.30;99.90;;;;;;5055670;28;20043;-74
2022/09/27 17:27:45;;;;;;;3.45;2.00;;;12.30;99.90;;;;;;5055248;28;20025;-74
2022/09/27 17:30:11;;;;;;;2.83;1.90;;;12.20;99.90;;;;;;5054441;28;20498;-74
2022/09/27 17:32:38;;;;;;;2.20;1.30;;;12.20;99.90;;;;;;5053874;28;20060;-74
2022/09/27 17:35:04;;;;;;;5.13;1.77;;;12.20;99.90;;;;;;5054062;28;20032;-74
2022/09/27 17:37:29;;;;;;;1.92;1.35;;;12.30;99.90;;;;;;5053817;28;20072;-74
2022/09/27 17:39:56;;;;;;;2.92;1.48;;;12.30;99.90;;;;;;5054048;28;20049;-74
2022/09/27 17:42:23;;;;;;;3.30;1.60;;;12.30;99.90;;;;;;5053794;28;20025;-74
2022/09/27 17:44:49;;;;;;;2.17;1.70;;;12.30;99.90;;;;;;5055504;28;20025;-74
2022/09/27 17:52:42;;;;;;;3.25;1.92;;;12.20;99.90;;;;;;5055266;28;20515;-74
2022/09/27 17:55:09;;;;;;;5.55;2.15;;;12.10;99.90;;;;;;5053808;28;20048;-74
2022/09/27 17:57:35;;;;;;;5.05;2.30;;;12.20;99.90;;;;;;5053695;28;20021;-75
2022/09/27 18:00:01;;;;;;;4.97;2.15;;;12.10;99.90;;;;;;5053569;28;20048;-74
2022/09/27 18:02:26;;;;;;;5.63;2.67;;;12.10;99.90;;;;;;5053444;28;20017;-74
2022/09/27 18:04:52;;;;;;;4.80;2.47;;;12.10;99.90;;;;;;5054602;28;20512;-74
2022/09/27 18:07:18;;;;;;;6.55;3.10;;;12.00;99.90;;;;;;5054272;28;20024;-74
2022/09/27 18:09:44;;;;;;;6.70;3.00;;;12.00;99.90;;;;;;5054648;28;20017;-74
2022/09/27 18:12:12;;;;;;;3.58;2.40;;;12.00;99.90;;;;;;5053179;28;20170;-74
2022/09/27 18:14:38;;;;;;;6.43;2.72;;;12.00;99.90;;;;;;5053414;28;20035;-76
2022/09/27 18:17:03;;;;;;;3.13;2.30;;;11.90;99.90;;;;;;5057931;28;20033;-76
2022/09/27 18:19:29;;;;;;;3.30;2.20;;;12.00;99.90;;;;;;5056187;28;20032;-76
2022/09/27 18:21:54;;;;;;;4.10;2.05;;;12.00;99.90;;;;;;5055901;28;20025;-74
2022/09/27 18:24:20;;;;;;;3.58;2.28;;;12.00;99.90;;;;;;5053386;28;20096;-73
2022/09/27 18:26:47;;;;;;;2.40;1.58;;;12.00;99.90;;;;;;5054158;28;20494;-73
2022/09/27 18:29:17;;;;;;;1.55;1.45;;;12.00;99.90;;;;;;5054122;28;20021;-72
2022/09/27 18:31:43;;;;;;;7.55;2.40;;;11.90;99.90;;;;;;5054231;28;20051;-73
2022/09/27 18:34:09;;;;;;;6.00;1.50;;;11.90;99.90;;;;;;5052838;28;20092;-73
2022/09/27 18:36:36;;;;;;;4.85;1.70;;;11.90;99.90;;;;;;5052931;28;20120;-73
2022/09/27 18:39:04;;;;;;;5.28;1.88;;;11.90;99.90;;;;;;5053494;28;20031;-74
2022/09/27 18:41:33;;;;;;;4.45;1.70;;;11.90;99.90;;;;;;5052677;28;20055;-75
2022/09/27 18:44:00;;;;;;;3.53;2.03;;;11.90;99.90;;;;;;5052575;28;20074;-75
2022/09/27 18:46:35;;;;;;;3.83;2.08;;;11.50;99.90;;;;;;5053281;28;20033;-74
2022/09/27 18:49:03;;;;;;;3.50;2.08;;;11.40;99.90;;;;;;5053960;28;20025;-74
2022/09/27 18:51:28;;;;;;;3.47;2.08;;;11.60;99.90;;;;;;5052515;28;20024;-74
2022/09/27 18:53:56;;;;;;;4.60;1.70;;;11.60;99.90;;;;;;5052621;28;20028;-74
2022/09/27 18:56:22;;;;;;;3.20;1.88;;;11.60;99.90;;;;;;5053830;28;20025;-75
2022/09/27 18:58:50;;;;;;;2.28;1.65;;;11.70;99.90;;;;;;5053824;28;20092;-74
2022/09/27 19:01:15;;;;;;;3.00;1.90;;;11.60;99.90;;;;;;5052876;28;20491;-75
2022/09/27 19:03:42;;;;;;;3.13;1.75;;;11.50;99.90;;;;;;5053627;28;20025;-74
2022/09/27 19:06:15;;;;;;;3.75;1.58;;;11.60;99.90;;;;;;5053724;28;20028;-74
2022/09/27 19:08:42;;;;;;;5.07;1.42;;;11.70;99.90;;;;;;5053998;28;20024;-74
2022/09/27 19:11:16;;;;;;;2.20;1.40;;;11.60;99.90;;;;;;5052321;28;20025;-74
2022/09/27 19:13:43;;;;;;;5.93;1.90;;;11.70;99.90;;;;;;5052301;28;20480;-74
2022/09/27 19:16:09;;;;;;;6.57;2.53;;;11.80;99.90;;;;;;5052299;28;20031;-74
2022/09/27 19:18:36;;;;;;;2.22;1.10;;;11.70;99.90;;;;;;5052356;28;20111;-75
2022/09/27 19:21:08;;;;;;;2.63;1.35;;;11.40;99.90;;;;;;5053464;28;20051;-74
2022/09/27 19:23:34;;;;;;;2.33;0.77;;;11.30;99.90;;;;;;5053780;28;20032;-75
2022/09/27 19:26:00;;;;;;;2.28;1.15;;;11.20;99.90;;;;;;5052938;28;20059;-74
2022/09/27 19:28:31;;;;;;;2.38;1.25;;;11.20;99.90;;;;;;5053373;28;20108;-75
2022/09/27 19:30:56;;;;;;;4.63;1.80;;;11.20;99.90;;;;;;5052011;28;20051;-74
2022/09/27 19:33:22;;;;;;;1.95;1.30;;;11.10;99.90;;;;;;5052070;28;20033;-75
2022/09/27 19:35:48;;;;;;;2.20;1.52;;;11.10;99.90;;;;;;5053225;28;20059;-74
2022/09/27 19:38:13;;;;;;;2.92;1.85;;;11.00;99.90;;;;;;5053786;28;20055;-74
2022/09/27 19:40:39;;;;;;;1.80;1.50;;;10.90;99.90;;;;;;5053283;28;20029;-74
2022/09/27 19:43:04;;;;;;;3.15;1.77;;;10.80;99.90;;;;;;5053110;28;20017;-74
2022/09/27 19:45:30;;;;;;;3.35;2.30;;;11.00;99.90;;;;;;5052304;28;20028;-75
2022/09/27 19:47:55;;;;;;;2.72;1.60;;;11.10;99.90;;;;;;5052875;28;20025;-74
2022/09/27 19:50:22;;;;;;;2.55;2.00;;;11.30;99.90;;;;;;5051905;28;20033;-75
2022/09/27 19:52:48;;;;;;;3.20;1.83;;;11.20;99.90;;;;;;5053066;28;20021;-74
2022/09/27 19:55:14;;;;;;;4.72;1.90;;;11.20;99.90;;;;;;5053394;28;20021;-75
2022/09/27 19:57:39;;;;;;;2.97;1.60;;;11.20;99.90;;;;;;5056502;28;20152;-75
2022/09/27 20:00:06;;;;;;;3.65;1.58;;;11.10;99.90;;;;;;5055822;28;20071;-74
2022/09/27 20:02:32;;;;;;;1.85;1.30;;;11.10;99.90;;;;;;5057102;28;20017;-74
2022/09/27 20:04:58;;;;;;;2.05;1.42;;;11.00;99.90;;;;;;5057301;28;20060;-74
2022/09/27 20:07:23;;;;;;;6.32;1.40;;;10.90;99.90;;;;;;5056462;28;20063;-75
2022/09/27 20:09:49;;;;;;;3.80;1.30;;;11.00;99.90;;;;;;5055809;28;20060;-74
2022/09/27 20:12:14;;;;;;;3.47;1.25;;;11.10;99.90;;;;;;5055561;28;20111;-74
2022/09/27 20:14:41;;;;;;;2.20;1.23;;;11.00;99.90;;;;;;5057135;28;20468;-76
2022/09/27 20:17:08;;;;;;;2.17;1.65;;;10.90;99.90;;;;;;5056495;28;20041;-76
2022/09/27 20:19:34;;;;;;;5.22;1.60;;;10.80;99.90;;;;;;5056505;28;20021;-76
2022/09/27 20:22:00;;;;;;;5.85;1.85;;;10.70;99.90;;;;;;5056819;28;20563;-76
2022/09/27 20:24:26;;;;;;;4.20;1.42;;;10.80;99.90;;;;;;5056315;28;20060;-76
2022/09/27 20:26:52;;;;;;;6.85;1.73;;;10.70;99.90;;;;;;5057539;28;20025;-76
2022/09/27 20:29:17;;;;;;;3.35;1.75;;;10.60;99.90;;;;;;5056302;28;20151;-76
2022/09/27 20:31:43;;;;;;;4.97;1.65;;;10.70;99.90;;;;;;5056409;28;20029;-76
2022/09/27 20:34:11;;;;;;;2.30;1.52;;;10.50;99.90;;;;;;5055877;28;20083;-76
2022/09/27 20:36:39;;;;;;;3.65;1.63;;;10.40;99.90;;;;;;5056746;28;20111;-76
2022/09/27 20:39:07;;;;;;;2.08;1.13;;;10.40;99.90;;;;;;5060121;28;20407;-76
2022/09/27 20:41:44;;;;;;;2.33;1.90;;;10.50;99.90;;;;;;5059774;28;20049;-76
2022/09/27 20:44:12;;;;;;;5.63;1.65;;;10.40;99.90;;;;;;5056241;28;20037;-76
2022/09/27 20:46:38;;;;;;;3.70;1.67;;;10.50;99.90;;;;;;5058370;28;20021;-76
2022/09/27 20:49:08;;;;;;;2.08;1.52;;;10.50;99.90;;;;;;5056244;28;20029;-76
2022/09/27 20:51:37;;;;;;;4.20;1.50;;;10.50;99.90;;;;;;5055958;28;20032;-76
2022/09/27 20:54:05;;;;;;;3.00;1.70;;;10.50;99.90;;;;;;5056191;28;20064;-76
2022/09/27 20:56:34;;;;;;;2.58;1.70;;;10.50;99.90;;;;;;5055549;28;20028;-76
2022/09/27 20:59:04;;;;;;;3.47;1.67;;;10.40;99.90;;;;;;5056783;28;20112;-76
2022/09/27 21:01:30;;;;;;;4.45;1.70;;;10.40;99.90;;;;;;5055742;28;20082;-76
2022/09/27 21:03:58;;;;;;;4.22;2.10;;;10.50;99.90;;;;;;5056299;28;20468;-76
2022/09/27 21:06:24;;;;;;;2.65;1.50;;;10.70;99.90;;;;;;5055162;28;20040;-76
2022/09/27 21:08:50;;;;;;;3.47;1.92;;;10.70;99.90;;;;;;5055799;28;20104;-76
2022/09/27 21:11:17;;;;;;;2.33;1.65;;;10.80;99.90;;;;;;5056679;28;20025;-76
2022/09/27 21:13:43;;;;;;;3.05;1.67;;;10.90;99.90;;;;;;5055275;28;20021;-76
2022/09/27 21:16:14;;;;;;;2.58;1.90;;;10.90;99.90;;;;;;5055415;28;20025;-77
2022/09/27 21:18:40;;;;;;;3.42;1.63;;;10.80;99.90;;;;;;5056548;28;20104;-76
2022/09/27 21:21:13;;;;;;;3.03;1.60;;;10.80;99.90;;;;;;5056819;28;20045;-77
2022/09/27 21:23:40;;;;;;;4.70;1.63;;;11.00;99.90;;;;;;5056162;28;20036;-76
2022/09/27 21:26:13;;;;;;;5.05;1.67;;;11.00;99.90;;;;;;5055039;28;20028;-76
2022/09/27 21:28:41;;;;;;;4.03;2.20;;;11.00;99.90;;;;;;5055134;28;20025;-76
2022/09/27 21:31:10;;;;;;;2.97;2.03;;;11.00;99.90;;;;;;5056544;28;20025;-76
2022/09/27 21:33:36;;;;;;;3.83;1.60;;;11.00;99.90;;;;;;5056165;28;20112;-76
2022/09/27 21:36:04;;;;;;;8.02;2.03;;;11.00;99.90;;;;;;5055604;28;20035;-76
2022/09/27 21:38:30;;;;;;;2.50;1.67;;;11.00;99.90;;;;;;5059338;28;20021;-78
2022/09/27 21:40:57;;;;;;;2.13;1.77;;;10.90;99.90;;;;;;5056976;28;20099;-75
2022/09/27 21:43:27;;;;;;;3.58;1.60;;;10.90;99.90;;;;;;5054568;28;20017;-74
2022/09/27 21:45:52;;;;;;;2.03;1.80;;;10.90;99.90;;;;;;5054936;28;20025;-75
2022/09/27 21:48:18;;;;;;;2.08;1.60;;;11.00;99.90;;;;;;5054125;28;20036;-75
2022/09/27 21:50:43;;;;;;;2.08;1.73;;;11.00;99.90;;;;;;5054241;28;20021;-75
2022/09/27 21:53:09;;;;;;;5.57;1.85;;;10.80;99.90;;;;;;5054250;28;20025;-75
2022/09/27 21:55:34;;;;;;;9.00;2.65;;;10.70;99.90;;;;;;5053596;28;20031;-75
2022/09/27 21:58:00;;;;;;;3.75;2.03;;;10.70;99.90;;;;;;5054000;28;20052;-75
2022/09/27 22:00:25;;;;;;;5.65;1.80;;;10.70;99.90;;;;;;5053975;28;20059;-75
2022/09/27 22:02:56;;;;;;;3.53;1.80;;;10.70;99.90;;;;;;5053918;28;20072;-75
2022/09/27 22:05:22;;;;;;;3.22;1.50;;;10.60;99.90;;;;;;5054738;28;20028;-75
2022/09/27 22:07:47;;;;;;;5.40;1.70;;;10.60;99.90;;;;;;5053481;28;20028;-75
2022/09/27 22:10:13;;;;;;;2.15;1.75;;;10.70;99.90;;;;;;5053438;28;20044;-75
2022/09/27 22:12:38;;;;;;;6.72;2.10;;;10.70;99.90;;;;;;5053702;28;20032;-74
2022/09/27 22:15:04;;;;;;;5.40;1.63;;;10.60;99.90;;;;;;5054470;28;20040;-75
2022/09/27 22:17:30;;;;;;;2.20;1.40;;;10.70;99.90;;;;;;5054456;28;20061;-75